Estación meteorológica de Montseny - Vallcàrquera (Vallès Oriental, Parc Natural del Montseny)

Consulta los datos en tiempo real de la estación meteorológica de Montseny - Vallcàrquera





Hora UTC 18:45
Temperatura 25.7 ºC
Humedad 56.6 %
Pluja 0.0 mm
Velocidad viento 0.9 km/h
Dirección viento NNW
Radiación solar 0.0 W/m²

Datos diarios 2026-09-06



Hora UTC (invierno +1h; verano +2h)
Temperatura (ºC) Humedad (%) Velocidad viento (km/h) Precipitación (mm) Radiación solar (W/m²)
Hora UTC Aire Humedad Vel. Dir. Vel. Max Dir. Intent. máx 5 min. Rad. Sol.
00:05 21.4 49.2 2.3 NE 2.3 ENE 0.0 0.0
00:10 21.4 49.4 4.2 ENE 7.4 ENE 0.0 0.0
00:15 21.6 48.8 3.8 NE 6.7 ENE 0.0 0.0
00:20 21.6 48.8 2.1 NE 4.6 ENE 0.0 0.0
00:25 21.7 48.0 2.3 NE 4.2 NNE 0.0 0.0
00:30 21.9 47.5 2.1 NE 4.9 ENE 0.0 0.0
00:35 21.6 48.5 2.5 NE 4.6 ENE 0.0 0.0
00:40 21.6 48.7 2.1 NNE 4.6 ENE 0.0 0.0
00:45 21.7 48.0 1.7 NNE 3.5 ENE 0.0 0.0
00:50 21.9 46.9 1.8 NNE 2.8 NE 0.0 0.0
00:55 21.9 47.4 2.3 NNE 3.9 NE 0.0 0.0
01:00 21.8 47.2 1.3 NNE 3.5 NE 0.0 0.0
01:05 21.8 47.9 0.6 NNE 1.8 N 0.0 0.0
01:10 21.6 48.3 1.5 NNE 2.5 NNE 0.0 0.0
01:15 21.7 48.2 2.3 NNE 3.5 NE 0.0 0.0
01:20 21.5 48.4 2.1 NE 3.9 ENE 0.0 0.0
01:25 21.3 48.7 2.4 NE 3.5 ENE 0.0 0.0
01:30 21.3 48.8 2.4 NE 3.9 ENE 0.0 0.0
01:35 21.2 48.8 1.6 NE 3.2 NE 0.0 0.0
01:40 21.2 48.6 2.2 NE 5.3 ENE 0.0 0.0
01:45 21.3 48.9 1.4 N 3.2 NE 0.0 0.0
01:50 21.3 48.7 2.4 NE 3.5 ENE 0.0 0.0
01:55 21.1 49.6 2.1 NE 4.2 ENE 0.0 0.0
02:00 20.9 49.8 2.3 NE 4.2 ENE 0.0 0.0
02:05 20.9 50.1 1.2 NNE 2.5 N 0.0 0.0
02:10 21.0 49.5 2.5 NE 3.9 ENE 0.0 0.0
02:15 21.1 49.5 1.9 NNE 2.8 N 0.0 0.0
02:20 21.0 50.5 1.8 NE 4.6 E 0.0 0.0
02:25 20.8 51.4 1.3 NE 3.5 ENE 0.0 0.0
02:30 20.8 50.9 2.5 NE 4.2 ENE 0.0 0.0
02:35 20.8 51.6 0.5 NNE 1.8 NNE 0.0 0.0
02:40 20.7 52.1 1.4 NE 3.2 NE 0.0 0.0
02:45 20.9 50.8 2.1 NNE 4.9 NE 0.0 0.0
02:50 21.0 51.8 1.3 NNE 2.5 N 0.0 0.0
02:55 20.6 53.0 2.3 ENE 3.9 ENE 0.0 0.0
03:00 20.5 53.4 2.3 NE 4.2 ENE 0.0 0.0
03:05 20.3 54.4 1.0 NNE 3.2 NE 0.0 0.0
03:10 20.7 52.4 1.8 NNE 3.2 NE 0.0 0.0
03:15 20.7 52.9 1.1 NE 2.5 N 0.0 0.0
03:20 20.5 53.2 1.6 NNE 3.2 NNE 0.0 0.0
03:25 20.6 53.0 1.5 NNE 3.9 NE 0.0 0.0
03:30 20.6 52.8 1.3 NNE 2.5 NNE 0.0 0.0
03:35 20.7 53.2 1.5 N 3.2 N 0.0 0.0
03:40 20.6 53.6 1.3 NE 4.2 ENE 0.0 0.0
03:45 20.5 53.8 1.7 NNE 2.8 NNE 0.0 0.0
03:50 20.6 53.6 1.6 NNE 3.5 ENE 0.0 0.0
03:55 20.5 54.0 1.9 ENE 3.9 ENE 0.0 0.0
04:00 20.4 54.1 1.5 NE 3.2 NE 0.0 0.0
04:05 20.2 55.4 1.1 NE 2.8 NNE 0.0 0.0
04:10 20.3 55.6 1.2 NNE 2.1 NNE 0.0 0.0
04:15 20.4 55.0 2.2 NE 4.6 NNE 0.0 0.0
04:20 20.5 54.9 1.8 NNE 3.5 NNE 0.0 0.0
04:25 20.3 55.3 2.4 NE 4.6 ENE 0.0 0.0
04:30 20.4 55.2 1.9 NNE 3.2 N 0.0 0.0
04:35 20.4 55.5 1.4 NE 3.2 ENE 0.0 0.0
04:40 20.2 56.2 1.8 NNE 3.9 NE 0.0 0.0
04:45 20.4 55.5 0.4 N 2.5 N 0.0 0.0
04:50 20.3 55.8 1.8 NNE 3.2 NNE 0.0 0.0
04:55 20.6 55.2 1.6 NE 4.2 ENE 0.0 0.0
05:00 20.3 55.8 2.5 NE 4.2 ENE 0.0 0.0
05:05 20.3 56.6 1.1 NNE 3.2 ENE 0.0 0.0
05:10 20.2 57.3 1.4 NE 2.5 NE 0.0 0.0
05:15 20.1 57.6 2.0 NNE 3.9 NE 0.0 0.2
05:20 20.1 57.9 2.0 NE 3.2 NE 0.0 1.0
05:25 20.1 57.8 1.9 NNE 3.5 NE 0.0 3.3
05:30 20.3 57.8 1.4 NNE 4.9 NE 0.0 5.6
05:35 20.1 58.4 2.1 NNE 4.2 ENE 0.0 9.3
05:40 20.2 58.6 1.7 NE 3.9 E 0.0 14.0
05:45 20.2 58.6 1.7 NNE 2.5 N 0.0 19.2
05:50 20.3 58.5 1.5 NNE 3.2 N 0.0 24.5
05:55 20.3 58.6 0.5 N 2.1 NNW 0.0 29.9
06:00 20.3 58.9 1.9 NNE 2.8 NE 0.0 35.8
06:05 20.5 58.0 1.1 NNE 2.5 N 0.0 42.2
06:10 20.7 57.0 1.6 N 2.8 N 0.0 48.4
06:15 21.0 55.8 0.4 N 2.1 NNW 0.0 54.0
06:20 21.1 56.5 1.0 NE 2.1 NE 0.0 58.9
06:25 21.1 57.2 2.1 NE 4.2 E 0.0 65.6
06:30 21.2 57.1 1.0 NNE 3.2 NNE 0.0 72.6
06:35 21.3 57.6 0.6 ENE 1.8 ENE 0.0 110.6
06:40 21.9 56.4 1.2 ENE 3.5 ENE 0.0 159.3
06:45 22.5 53.3 2.3 ENE 3.9 ENE 0.0 177.0
06:50 23.2 51.5 1.2 ENE 2.1 ENE 0.0 194.0
06:55 23.7 50.3 1.8 ENE 3.9 E 0.0 210.1
07:00 23.9 50.5 1.9 E 3.9 E 0.0 218.1
07:05 23.8 49.8 3.6 ENE 4.9 ENE 0.0 240.5
07:10 24.0 48.8 2.7 E 4.2 E 0.0 256.5
07:15 24.7 49.3 2.2 E 3.5 ENE 0.0 271.9
07:20 25.2 46.6 1.7 E 3.2 E 0.0 287.3
07:25 25.8 47.1 1.7 E 3.2 ENE 0.0 303.0
07:30 26.1 46.3 1.8 E 3.5 E 0.0 318.2
07:35 26.3 44.7 1.4 E 3.9 E 0.0 333.1
07:40 26.9 44.7 1.5 ESE 3.5 SSE 0.0 347.8
07:45 27.2 42.7 2.0 E 4.9 ESE 0.0 365.2
07:50 27.2 42.8 1.8 ESE 4.2 SE 0.0 381.4
07:55 27.5 42.3 2.1 ESE 3.9 ESE 0.0 396.8
08:00 27.9 41.6 1.1 SE 3.2 ESE 0.0 411.5
08:05 28.6 39.9 1.1 SE 2.8 ENE 0.0 420.5
08:10 28.8 40.8 1.7 SSE 3.5 SSE 0.0 433.6
08:15 29.0 40.3 2.2 SSW 4.9 SW 0.0 444.8
08:20 29.0 40.3 3.0 SSW 6.7 SSW 0.0 460.1
08:25 29.0 40.2 2.5 S 6.0 SSW 0.0 479.6
08:30 29.8 38.6 1.5 SSE 3.9 SW 0.0 492.8
08:35 30.7 37.1 1.7 S 4.9 SSW 0.0 508.5
08:40 30.5 35.8 2.4 S 5.3 S 0.0 519.6
08:45 30.7 36.4 2.9 SSE 6.7 S 0.0 532.6
08:50 30.9 36.3 2.8 S 5.6 S 0.0 545.8
08:55 31.2 35.5 3.2 S 6.7 SSW 0.0 558.7
09:00 31.5 35.1 2.1 S 5.3 SSE 0.0 570.8
09:05 32.1 33.9 3.2 SSW 8.8 SSW 0.0 582.8
09:10 32.4 33.5 3.0 S 7.1 SSW 0.0 592.7
09:15 32.8 33.0 2.7 ESE 6.7 S 0.0 603.0
09:20 32.6 32.9 3.2 SE 9.9 SSW 0.0 612.6
09:25 32.9 32.4 3.1 S 9.9 SSE 0.0 625.5
09:30 32.9 32.0 3.9 SSE 8.8 S 0.0 635.8
09:35 32.9 32.1 3.6 SSE 8.8 SSW 0.0 645.9
09:40 32.9 31.9 3.4 ESE 11.6 E 0.0 654.6
09:45 33.2 31.2 3.6 SSE 7.4 S 0.0 665.7
09:50 33.4 31.1 2.8 SE 9.2 ESE 0.0 674.9
09:55 33.9 30.4 2.8 SSE 8.8 ENE 0.0 683.4
10:00 34.3 29.6 3.0 S 11.3 SSW 0.0 692.0
10:05 34.3 29.3 3.2 S 8.8 S 0.0 700.4
10:10 33.8 29.9 4.7 SW 10.6 WSW 0.0 709.5
10:15 33.7 30.0 4.8 SSW 12.4 W 0.0 718.8
10:20 34.2 29.3 5.3 SW 12.0 SSW 0.0 727.1
10:25 33.9 29.6 5.5 SSW 10.6 SSW 0.0 733.6
10:30 34.0 29.4 3.8 SSW 9.5 WSW 0.0 740.0
10:35 34.0 28.9 5.2 SSW 15.5 SW 0.0 746.0
10:40 34.2 28.1 4.3 SW 10.6 WSW 0.0 752.4
10:45 34.8 27.1 3.7 SSW 9.9 SSW 0.0 743.5
10:50 35.0 26.6 5.1 SSW 10.2 SW 0.0 761.8
10:55 34.8 26.4 5.1 SW 11.3 SW 0.0 765.6
11:00 34.6 26.9 4.5 SSW 10.6 S 0.0 766.4
11:05 34.9 26.6 4.5 SW 12.0 SW 0.0 770.9
11:10 35.1 26.4 3.4 S 7.4 SSW 0.0 774.4
11:15 35.2 27.0 5.2 SSW 13.1 SSW 0.0 777.7
11:20 35.0 27.0 4.5 SW 11.3 SSW 0.0 778.7
11:25 35.3 26.6 3.3 SSE 9.2 E 0.0 781.3
11:30 35.4 27.2 4.2 SSW 9.2 SSW 0.0 781.5
11:35 35.8 26.9 3.1 S 14.1 SW 0.0 783.0
11:40 36.3 26.0 3.7 S 9.2 SW 0.0 783.4
11:45 36.3 25.7 4.0 S 10.2 S 0.0 784.7
11:50 35.7 25.8 4.4 S 11.6 ESE 0.0 766.4
11:55 35.9 25.4 5.1 SSW 11.6 S 0.0 779.4
12:00 36.4 25.2 4.1 SSW 11.6 SW 0.0 789.4
12:05 36.3 25.0 4.2 S 13.1 S 0.0 785.1
12:10 35.9 25.4 4.1 ESE 10.6 W 0.0 783.1
12:15 36.0 25.2 4.4 SSW 14.1 S 0.0 780.6
12:20 36.0 25.7 4.0 SE 11.3 SSW 0.0 779.0
12:25 35.7 26.2 3.6 ESE 9.9 SE 0.0 775.4
12:30 36.3 25.7 4.0 SSW 10.6 SSW 0.0 773.8
12:35 36.4 25.9 3.8 SE 10.6 SSW 0.0 771.5
12:40 36.0 26.4 4.1 S 12.0 WSW 0.0 766.1
12:45 36.2 27.1 3.1 S 12.7 SSW 0.0 761.7
12:50 36.5 27.7 3.3 SSW 11.6 SW 0.0 756.6
12:55 36.2 28.2 3.3 SSW 10.6 SSE 0.0 745.8
13:00 36.1 28.6 3.8 SSW 13.1 SSW 0.0 740.4
13:05 36.1 29.0 3.6 SSW 13.8 WSW 0.0 737.8
13:10 36.3 28.6 4.2 S 11.6 SSW 0.0 733.5
13:15 36.4 28.7 4.1 SSE 12.0 S 0.0 728.8
13:20 36.1 29.4 4.8 S 14.5 SSW 0.0 723.2
13:25 35.5 30.2 3.7 SSW 12.4 SSW 0.0 716.3
13:30 35.3 30.8 3.6 SSE 8.8 SSW 0.0 703.4
13:35 35.4 31.0 3.7 ESE 14.1 E 0.0 699.7
13:40 34.7 32.0 3.9 ESE 10.6 SSE 0.0 689.7
13:45 34.9 32.0 3.6 S 9.9 SE 0.0 681.8
13:50 35.0 31.1 3.1 WSW 10.9 S 0.0 671.0
13:55 34.9 31.6 3.4 SSW 9.2 SW 0.0 660.8
14:00 35.1 31.5 2.8 SSW 10.9 S 0.0 649.8
14:05 35.0 31.8 3.8 SE 12.4 S 0.0 641.6
14:10 35.1 30.9 3.3 S 9.9 SE 0.0 629.1
14:15 34.8 31.7 3.3 SE 9.5 SSW 0.0 620.3
14:20 34.8 31.9 3.6 NW 7.1 NNW 0.0 609.4
14:25 34.8 32.2 2.6 SSE 7.8 SSW 0.0 596.9
14:30 34.8 32.3 2.8 WSW 8.5 SSW 0.0 586.0
14:35 34.7 33.0 3.5 S 11.3 SSW 0.0 574.8
14:40 34.4 33.2 4.3 E 9.5 ESE 0.0 562.8
14:45 33.9 34.2 3.7 NNW 12.7 N 0.0 550.3
14:50 33.8 34.5 4.3 W 13.4 NNW 0.0 540.2
14:55 34.2 34.3 3.5 S 9.9 SSE 0.0 528.9
15:00 34.4 34.1 2.4 SE 7.1 SSW 0.0 513.5
15:05 34.3 33.7 2.7 NNW 7.1 NNW 0.0 498.3
15:10 34.1 34.2 4.0 SE 12.0 NE 0.0 484.7
15:15 34.3 33.5 4.0 S 7.4 S 0.0 473.6
15:25 34.3 33.9 3.3 S 10.9 SSE 0.0 443.7
15:35 34.2 33.8 2.8 NE 6.4 E 0.0 414.8
15:40 33.7 35.3 3.5 SSW 10.9 NW 0.0 400.4
15:45 34.2 35.1 2.5 SSW 8.8 SSW 0.0 387.1
15:50 33.9 35.2 2.7 W 6.7 W 0.0 371.4
15:55 34.0 35.0 2.3 SSW 8.1 SSW 0.0 357.8
16:00 34.0 35.2 2.9 WNW 8.5 SSW 0.0 291.6
16:05 33.7 36.2 3.6 WSW 10.2 W 0.0 246.7
16:10 33.1 36.6 2.4 NW 6.7 NW 0.0 271.4
16:15 33.3 36.4 2.2 WSW 9.2 SW 0.0 203.2
16:20 33.0 37.6 2.5 WSW 8.1 SW 0.0 113.4
16:25 32.4 38.6 1.4 WNW 6.0 WSW 0.0 85.7
16:30 32.0 40.0 3.3 SW 8.8 SW 0.0 81.2
16:35 31.5 41.3 3.5 WSW 8.5 SSW 0.0 83.0
16:40 31.2 42.1 2.4 SW 6.4 NW 0.0 62.1
16:45 31.0 42.7 2.4 WSW 5.6 SSW 0.0 56.7
16:50 30.8 43.4 2.3 W 5.6 SW 0.0 54.2
16:55 30.4 44.2 3.0 SW 6.7 S 0.0 68.9
17:00 30.3 44.7 1.7 S 7.4 SSW 0.0 72.2
17:05 30.0 45.1 3.9 SSW 10.2 SSW 0.0 62.8
17:10 29.8 45.8 1.6 SW 5.6 WSW 0.0 57.4
17:15 29.6 46.1 3.5 SSW 8.8 SSW 0.0 59.2
17:20 29.4 46.3 4.1 SSW 12.7 WSW 0.0 78.8
17:25 29.4 46.3 4.7 SSW 8.8 SW 0.0 88.1
17:30 29.3 46.5 3.6 S 8.5 SSW 0.0 69.0
17:35 29.1 46.9 2.9 SSW 9.9 SSW 0.0 54.7
17:40 28.9 47.4 3.5 SSW 8.8 SSW 0.0 47.2
17:45 28.7 47.9 1.7 S 4.9 SSW 0.0 39.6
17:50 28.6 48.3 0.8 SE 4.2 SSE 0.0 32.4
17:55 28.4 48.8 1.5 SSW 5.3 SW 0.0 26.2
18:00 28.1 49.1 1.9 ESE 5.3 E 0.0 20.3
18:05 27.9 48.9 3.4 SSW 8.5 SSW 0.0 15.3
18:10 27.7 49.0 4.6 SSW 10.9 SW 0.0 11.2
18:15 27.5 49.3 2.6 S 7.4 SW 0.0 6.9
18:30 26.4 53.7 2.5 ENE 4.2 ENE 0.0 0.0
18:35 26.2 54.5 1.3 ENE 3.2 ENE 0.0 0.0
18:40 25.9 57.0 2.4 NE 5.3 NE 0.0 0.0
18:45 25.7 56.6 0.9 NNW 2.8 NNW 0.0 0.0
Máxima 36.5 58.9 5.5 SSW 15.5 SW 0.0 789.4
Mínima 20 25.0
Total 0.0